メインページ
METAR-TAF:

METAR-TAF

空港 :

マルティニーク・エメ・セゼール国際空港

フォール=ド=フランス, マルティニーク

緯度: 14-36N, 経度: 061-00W, 海抜: 5m

現時点の気象観測

当レポートは33分前の05:30(UTC)に作成
の風 10kt
気温 25°C
湿度 89%
気圧 1014 hPa
視程10km以上
高度1500ftの雲は散在している
高度2700ftの雲は散在している
高度4400ftの千切れ雲あり

METAR: TFFF 210530Z AUTO 09010KT 9999 SCT015 SCT027 BKN044 25/23 Q1014 TEMPO 4000 SHRA SCT018TCU

時間: 02:03 (06:03 UTC)

予報

当レポートは2時間3分前の04:00(UTC)に作成
予報は21日の 06時(UTC)から 22日の 06時(UTC)まで有効
の風 10kt
視程10km以上
高度2000ftの雲は散在している
高度3500ftの雲は散在している
21日の 06時(UTC)から 21日の 12時(UTC)まで一時的に
視程: 4000m
高度1800ftの雲は散在している, 塔状積雲.
にわか雨

TAF: TFFF 210400Z 2106/2206 09010KT 9999 SCT020 SCT035 TEMPO 2106/2112 4000 SHRA SCT018TCU

4,000以上の空港の気象観測と天気予報(METAR報とTAF報)

利用可能な観測所は地図上に黄色い丸と赤い丸で示す。

丸の上にカーソルを重ねると観測所名を参照できる。

次にクリックすると気象観測と天気予報を参照できる。

マップの切り替え:黒色「×」印の緑ボタンをクリックして拡大、「-」印の緑ボタンをクリックして縮小、緑色の三角印をクリックして隣りの地図に切り替え


METAR-TAF: